createdAt,value
2018-06-19T00:01:00.446Z,10.20
2018-06-19T00:03:28.871Z,9.23
2018-06-19T00:05:56.952Z,9.27
2018-06-19T00:08:25.438Z,10.00
2018-06-19T00:10:53.832Z,9.43
2018-06-19T00:13:22.201Z,9.67
2018-06-19T00:15:50.579Z,9.50
2018-06-19T00:18:24.914Z,9.27
2018-06-19T00:20:55.520Z,9.83
2018-06-19T00:23:23.917Z,10.53
2018-06-19T00:25:52.279Z,9.70
2018-06-19T00:28:20.675Z,10.03
2018-06-19T00:30:49.223Z,9.33
2018-06-19T00:33:17.826Z,9.50
2018-06-19T00:35:46.182Z,9.40
2018-06-19T00:38:14.532Z,9.83
2018-06-19T00:40:42.858Z,9.40
2018-06-19T00:43:12.135Z,9.93
2018-06-19T00:45:40.509Z,9.03
2018-06-19T00:48:09.320Z,9.63
2018-06-19T00:50:37.813Z,9.43
2018-06-19T00:53:06.316Z,10.07
2018-06-19T00:55:34.722Z,8.87
2018-06-19T00:58:03.078Z,9.77
2018-06-19T01:00:31.418Z,9.67
2018-06-19T01:02:59.799Z,9.37
2018-06-19T01:05:28.131Z,9.27
2018-06-19T01:07:56.511Z,9.50
2018-06-19T01:10:24.933Z,9.40
2018-06-19T01:12:53.332Z,9.20
2018-06-19T01:15:21.747Z,9.80
2018-06-19T01:17:50.127Z,10.60
2018-06-19T01:20:18.480Z,9.67
2018-06-19T01:22:46.909Z,9.97
2018-06-19T01:25:15.394Z,9.67
2018-06-19T01:27:43.786Z,10.33
2018-06-19T01:30:12.361Z,10.03
2018-06-19T01:32:40.746Z,9.90
2018-06-19T01:35:09.097Z,8.93
2018-06-19T01:37:37.472Z,8.93
2018-06-19T01:40:05.897Z,10.17
2018-06-19T01:42:34.239Z,9.80
2018-06-19T01:45:02.607Z,9.60
2018-06-19T01:47:30.964Z,10.27
2018-06-19T01:49:59.353Z,10.67
2018-06-19T01:52:27.713Z,9.57
2018-06-19T01:54:56.022Z,10.50
2018-06-19T01:57:24.421Z,10.67
2018-06-19T01:59:52.778Z,9.70
2018-06-19T02:02:21.173Z,9.80
2018-06-19T02:04:49.555Z,8.70
2018-06-19T02:07:17.901Z,7.80
2018-06-19T02:09:46.402Z,8.30
2018-06-19T02:12:14.885Z,7.67
2018-06-19T02:14:43.485Z,7.10
2018-06-19T02:17:11.847Z,6.90
2018-06-19T02:19:40.221Z,7.33
2018-06-19T02:22:08.585Z,7.20
2018-06-19T02:24:36.943Z,7.30
2018-06-19T02:27:05.698Z,6.90
2018-06-19T02:29:34.022Z,7.50
2018-06-19T02:32:02.557Z,7.23
2018-06-19T02:34:30.967Z,7.60
2018-06-19T02:36:59.358Z,8.33
2018-06-19T02:39:27.725Z,9.10
2018-06-19T02:41:56.203Z,7.93
2018-06-19T02:44:24.240Z,7.40
2018-06-19T02:46:52.616Z,8.27
2018-06-19T02:49:20.965Z,7.90
2018-06-19T02:51:49.325Z,7.40
2018-06-19T02:54:17.810Z,8.33
2018-06-19T02:56:46.290Z,7.90
2018-06-19T02:59:14.762Z,7.47
2018-06-19T03:01:43.159Z,8.23
2018-06-19T03:04:11.531Z,8.93
2018-06-19T03:06:39.869Z,8.30
2018-06-19T03:09:09.547Z,9.13
2018-06-19T03:11:38.198Z,8.50
2018-06-19T03:14:06.810Z,8.13
2018-06-19T03:16:35.494Z,8.50
2018-06-19T03:19:03.898Z,8.13
2018-06-19T03:21:32.428Z,8.97
2018-06-19T03:24:00.798Z,9.27
2018-06-19T03:26:29.292Z,8.47
2018-06-19T03:28:57.736Z,9.77
2018-06-19T03:31:26.098Z,7.83
2018-06-19T03:33:54.897Z,8.20
2018-06-19T03:36:22.976Z,9.13
2018-06-19T03:38:51.349Z,8.80
2018-06-19T03:41:19.714Z,8.53
2018-06-19T03:43:48.069Z,8.00
2018-06-19T03:46:16.507Z,7.40
2018-06-19T03:48:44.992Z,6.17
2018-06-19T03:51:13.476Z,7.67
2018-06-19T03:53:41.960Z,7.10
2018-06-19T03:56:10.342Z,7.40
2018-06-19T03:58:38.872Z,7.27
2018-06-19T04:01:07.313Z,6.43
2018-06-19T04:03:36.098Z,6.10
2018-06-19T04:06:04.581Z,6.37
2018-06-19T04:08:32.957Z,6.60
2018-06-19T04:11:01.390Z,5.87
2018-06-19T04:13:30.139Z,6.27
2018-06-19T04:15:58.481Z,5.80
2018-06-19T04:18:26.845Z,5.40
2018-06-19T04:20:55.261Z,5.10
2018-06-19T04:23:23.626Z,6.00
2018-06-19T04:25:52.110Z,5.70
2018-06-19T04:28:20.538Z,8.10
2018-06-19T04:30:48.895Z,5.50
2018-06-19T04:33:17.297Z,6.10
2018-06-19T04:35:45.610Z,6.10
2018-06-19T04:38:13.939Z,6.10
2018-06-19T04:40:42.273Z,5.50
2018-06-19T04:43:10.726Z,5.73
2018-06-19T04:45:39.079Z,5.00
2018-06-19T04:48:07.538Z,6.77
2018-06-19T04:50:36.026Z,5.90
2018-06-19T04:53:04.362Z,6.33
2018-06-19T04:55:32.736Z,6.23
2018-06-19T04:58:01.090Z,6.70
2018-06-19T05:00:29.617Z,6.00
2018-06-19T05:02:58.067Z,6.30
2018-06-19T05:05:26.404Z,6.20
2018-06-19T05:07:54.725Z,7.03
2018-06-19T05:10:23.085Z,6.47
2018-06-19T05:12:51.591Z,6.10
2018-06-19T05:15:19.924Z,5.73
2018-06-19T05:17:47.963Z,5.73
2018-06-19T05:20:16.327Z,6.50
2018-06-19T05:22:44.775Z,6.00
2018-06-19T05:25:13.133Z,6.03
2018-06-19T05:27:41.461Z,5.90
2018-06-19T05:30:09.864Z,6.13
2018-06-19T05:32:38.213Z,5.23
2018-06-19T05:35:06.753Z,7.07
2018-06-19T05:37:35.075Z,6.60
2018-06-19T05:40:03.485Z,5.63
2018-06-19T05:42:31.885Z,6.63
2018-06-19T05:45:00.325Z,7.23
2018-06-19T05:47:28.767Z,7.20
2018-06-19T05:49:57.218Z,6.70
2018-06-19T05:52:25.734Z,6.43
2018-06-19T05:54:54.103Z,6.13
2018-06-19T05:57:22.500Z,6.67
2018-06-19T05:59:50.880Z,6.07
2018-06-19T06:02:19.241Z,5.97
2018-06-19T06:04:47.597Z,6.10
2018-06-19T06:07:18.060Z,5.80
2018-06-19T06:09:46.505Z,4.70
2018-06-19T06:12:14.901Z,5.13
2018-06-19T06:14:43.282Z,4.77
2018-06-19T06:17:11.819Z,4.83
2018-06-19T06:19:40.347Z,5.70
2018-06-19T06:22:08.740Z,4.63
2018-06-19T06:24:37.343Z,4.87
2018-06-19T06:27:06.734Z,5.13
2018-06-19T06:29:35.098Z,5.53
2018-06-19T06:32:03.681Z,6.30
2018-06-19T06:34:32.092Z,5.57
2018-06-19T06:37:00.471Z,4.27
2018-06-19T06:39:28.822Z,4.90
2018-06-19T06:41:57.277Z,4.57
2018-06-19T06:44:25.673Z,4.97
2018-06-19T06:46:54.041Z,4.67
2018-06-19T06:49:22.531Z,3.40
2018-06-19T06:51:50.886Z,3.03
2018-06-19T06:54:19.260Z,3.20
2018-06-19T06:56:47.600Z,3.67
2018-06-19T06:59:16.143Z,3.63
2018-06-19T07:01:44.589Z,3.50
2018-06-19T07:04:13.043Z,3.07
2018-06-19T07:06:41.402Z,3.23
2018-06-19T07:09:11.278Z,3.60
2018-06-19T07:11:39.809Z,4.00
2018-06-19T07:14:08.326Z,3.67
2018-06-19T07:16:36.752Z,3.50
2018-06-19T07:19:05.588Z,3.90
2018-06-19T07:21:33.982Z,3.80
2018-06-19T07:24:02.368Z,3.13
2018-06-19T07:26:30.864Z,2.23
2018-06-19T07:28:59.201Z,2.60
2018-06-19T07:31:27.626Z,2.40
2018-06-19T07:33:55.977Z,2.70
2018-06-19T07:36:24.781Z,2.50
2018-06-19T07:38:53.350Z,1.70
2018-06-19T07:41:21.721Z,2.60
2018-06-19T07:43:50.321Z,2.13
2018-06-19T07:46:18.634Z,2.27
2018-06-19T07:48:47.009Z,2.10
2018-06-19T07:51:15.369Z,2.40
2018-06-19T07:53:43.764Z,2.33
2018-06-19T07:56:12.181Z,2.00
2018-06-19T07:58:41.534Z,2.13
2018-06-19T08:01:10.089Z,2.40
2018-06-19T08:03:38.581Z,2.10
2018-06-19T08:06:06.959Z,2.80
2018-06-19T08:08:35.323Z,2.50
2018-06-19T08:11:03.762Z,2.30
2018-06-19T08:13:32.200Z,2.13
2018-06-19T08:16:00.547Z,2.60
2018-06-19T08:18:28.951Z,2.50
2018-06-19T08:20:57.304Z,2.03
2018-06-19T08:23:25.782Z,2.40
2018-06-19T08:25:54.716Z,1.77
2018-06-19T08:28:23.097Z,2.80
2018-06-19T08:30:51.517Z,2.33
2018-06-19T08:33:19.946Z,3.00
2018-06-19T08:35:48.545Z,2.10
2018-06-19T08:38:16.946Z,2.50
2018-06-19T08:40:45.606Z,2.40
2018-06-19T08:43:13.953Z,2.10
2018-06-19T08:45:42.322Z,2.40
2018-06-19T08:48:10.686Z,2.10
2018-06-19T08:50:39.090Z,2.20
2018-06-19T08:53:07.449Z,2.60
2018-06-19T08:55:35.937Z,2.20
2018-06-19T08:58:04.726Z,2.30
2018-06-19T09:00:33.109Z,2.30
2018-06-19T09:03:01.547Z,2.00
2018-06-19T09:05:30.287Z,2.00
2018-06-19T09:07:58.694Z,1.90
2018-06-19T09:10:26.794Z,1.80
2018-06-19T09:12:55.159Z,1.92
2018-06-19T09:15:23.698Z,2.10
2018-06-19T09:17:52.167Z,1.90
2018-06-19T09:20:20.648Z,2.35
2018-06-19T09:22:49.160Z,2.37
2018-06-19T09:25:17.554Z,2.17
2018-06-19T09:27:46.056Z,2.17
2018-06-19T09:30:14.451Z,2.02
2018-06-19T09:32:42.877Z,2.00
2018-06-19T09:35:11.435Z,2.40
2018-06-19T09:37:40.022Z,2.20
2018-06-19T09:40:08.492Z,2.10
2018-06-19T09:42:37.022Z,2.42
2018-06-19T09:45:05.582Z,2.40
2018-06-19T09:47:34.136Z,2.20
2018-06-19T09:50:02.602Z,2.40
2018-06-19T09:52:31.164Z,2.10
2018-06-19T09:54:59.614Z,2.00
2018-06-19T09:57:27.729Z,2.43
2018-06-19T09:59:56.222Z,2.20
2018-06-19T10:02:24.721Z,2.30
2018-06-19T10:04:53.154Z,2.40
2018-06-19T10:07:21.970Z,2.30
2018-06-19T10:09:51.811Z,2.50
2018-06-19T10:12:20.782Z,1.80
2018-06-19T10:14:49.568Z,2.08
2018-06-19T10:17:18.066Z,2.10
2018-06-19T10:19:46.678Z,2.00
2018-06-19T10:22:15.194Z,1.92
2018-06-19T10:24:43.667Z,1.80
2018-06-19T10:27:12.214Z,1.67
2018-06-19T10:29:40.640Z,1.70
2018-06-19T10:32:09.007Z,1.92
2018-06-19T10:34:37.610Z,2.00
2018-06-19T10:37:06.038Z,1.98
2018-06-19T10:39:34.460Z,2.57
2018-06-19T10:42:02.831Z,2.13
2018-06-19T10:44:31.231Z,2.10
2018-06-19T10:46:59.741Z,2.70
2018-06-19T10:49:28.146Z,1.70
2018-06-19T10:51:56.605Z,2.20
2018-06-19T10:54:25.119Z,1.97
2018-06-19T10:56:53.597Z,2.13
2018-06-19T10:59:21.990Z,1.97
2018-06-19T11:01:50.498Z,2.00
2018-06-19T11:04:18.908Z,2.00
2018-06-19T11:06:47.412Z,1.87
2018-06-19T11:09:15.890Z,1.90
2018-06-19T11:11:44.307Z,1.93
2018-06-19T11:14:12.886Z,1.97
2018-06-19T11:16:41.202Z,1.47
2018-06-19T11:19:09.674Z,2.03
2018-06-19T11:21:37.738Z,1.73
2018-06-19T11:24:06.458Z,2.07
2018-06-19T11:26:34.803Z,1.60
2018-06-19T11:29:03.181Z,1.60
2018-06-19T11:31:31.581Z,2.17
2018-06-19T11:34:00.134Z,1.90
2018-06-19T11:36:28.690Z,1.60
2018-06-19T11:38:57.096Z,1.97
2018-06-19T11:41:25.510Z,1.83
2018-06-19T11:43:53.886Z,1.90
2018-06-19T11:46:22.366Z,1.63
2018-06-19T11:48:50.754Z,2.13
2018-06-19T11:51:19.109Z,2.20
2018-06-19T11:53:47.516Z,1.93
2018-06-19T11:56:15.846Z,1.77
2018-06-19T11:58:44.341Z,2.00
2018-06-19T12:01:12.831Z,1.40
2018-06-19T12:03:41.253Z,1.67
2018-06-19T12:06:09.625Z,1.60
2018-06-19T12:08:38.018Z,2.03
2018-06-19T12:11:06.489Z,1.50
2018-06-19T12:13:34.900Z,1.63
2018-06-19T12:16:03.291Z,1.60
2018-06-19T12:18:31.652Z,1.50
2018-06-19T12:21:00.162Z,1.97
2018-06-19T12:23:28.583Z,1.70
2018-06-19T12:25:57.079Z,1.90
2018-06-19T12:28:25.763Z,1.70
2018-06-19T12:30:54.158Z,1.80
2018-06-19T12:33:22.518Z,1.50
2018-06-19T12:35:50.927Z,1.62
2018-06-19T12:38:19.336Z,1.60
2018-06-19T12:40:47.722Z,1.80
2018-06-19T12:43:16.141Z,1.30
2018-06-19T12:45:44.597Z,1.70
2018-06-19T12:48:13.008Z,1.50
2018-06-19T12:51:59.887Z,1.60
2018-06-19T12:54:37.101Z,1.60
2018-06-19T12:57:05.532Z,1.80
2018-06-19T12:59:33.914Z,1.60
2018-06-19T13:02:02.337Z,1.60
2018-06-19T13:04:42.158Z,1.50
2018-06-19T13:07:10.523Z,1.60
2018-06-19T13:09:38.910Z,1.80
2018-06-19T13:12:17.467Z,1.50
2018-06-19T13:14:45.592Z,1.60
2018-06-19T13:17:25.476Z,1.50
2018-06-19T13:20:05.255Z,1.42
2018-06-19T13:22:33.655Z,1.60
2018-06-19T13:25:02.098Z,1.60
2018-06-19T13:27:30.485Z,1.40
2018-06-19T13:30:11.310Z,1.50
2018-06-19T13:32:40.103Z,1.50
2018-06-19T13:35:08.529Z,1.40
2018-06-19T13:37:37.018Z,1.60
2018-06-19T13:41:17.120Z,1.70
2018-06-19T13:43:57.746Z,1.50
2018-06-19T13:46:26.305Z,1.70
2018-06-19T13:48:54.792Z,1.50
2018-06-19T13:51:23.217Z,1.70
2018-06-19T13:53:51.849Z,1.67
2018-06-19T13:57:44.060Z,1.50
2018-06-19T14:00:17.540Z,1.70
2018-06-19T14:02:46.346Z,1.50
2018-06-19T14:05:16.041Z,1.70
2018-06-19T14:08:06.761Z,1.70
2018-06-19T14:10:46.430Z,1.40
2018-06-19T14:13:14.902Z,1.40
2018-06-19T14:15:48.577Z,1.70
2018-06-19T14:18:18.152Z,1.30
2018-06-19T14:20:46.725Z,1.70
2018-06-19T14:23:15.467Z,1.70
2018-06-19T14:25:43.932Z,1.92
2018-06-19T14:28:12.614Z,1.60
2018-06-19T14:30:41.100Z,1.30
2018-06-19T14:33:09.561Z,1.40
2018-06-19T14:35:38.019Z,1.70
2018-06-19T14:38:06.442Z,1.40
2018-06-19T14:40:34.898Z,1.77
2018-06-19T14:43:03.287Z,1.60
2018-06-19T14:45:31.698Z,1.40
2018-06-19T14:48:00.072Z,1.52
2018-06-19T14:50:28.517Z,1.50
2018-06-19T14:52:56.937Z,1.65
2018-06-19T14:55:25.483Z,1.40
2018-06-19T14:57:53.986Z,1.45
2018-06-19T15:00:22.413Z,1.30
2018-06-19T15:02:50.848Z,1.70
2018-06-19T15:05:19.306Z,1.62
2018-06-19T15:07:51.774Z,1.60
2018-06-19T15:10:20.369Z,1.50
2018-06-19T15:12:48.785Z,1.37
2018-06-19T15:15:17.433Z,1.50
2018-06-19T15:17:45.859Z,1.60
2018-06-19T15:20:14.541Z,1.50
2018-06-19T15:22:42.953Z,1.50
2018-06-19T15:25:11.372Z,1.50
2018-06-19T15:27:39.793Z,1.70
2018-06-19T15:30:08.241Z,1.60
2018-06-19T15:32:36.373Z,1.50
2018-06-19T15:35:04.911Z,1.50
2018-06-19T15:37:33.433Z,1.50
2018-06-19T15:40:01.934Z,1.70
2018-06-19T15:42:30.346Z,1.40
2018-06-19T15:44:58.984Z,1.45
2018-06-19T15:47:27.373Z,1.63
2018-06-19T15:49:55.945Z,1.80
2018-06-19T15:52:24.537Z,1.52
2018-06-19T15:54:53.119Z,1.47
2018-06-19T15:57:21.539Z,1.60
2018-06-19T15:59:50.174Z,1.98
2018-06-19T16:02:18.553Z,1.80
2018-06-19T16:04:47.042Z,1.60
2018-06-19T16:07:15.542Z,1.50
2018-06-19T16:09:43.922Z,1.70
2018-06-19T16:12:12.352Z,1.70
2018-06-19T16:14:40.855Z,1.70
2018-06-19T16:17:09.450Z,1.60
2018-06-19T16:19:37.884Z,1.60
2018-06-19T16:22:06.379Z,1.62
2018-06-19T16:24:34.774Z,1.30
2018-06-19T16:27:03.306Z,1.40
2018-06-19T16:29:31.795Z,1.70
2018-06-19T16:32:00.279Z,1.87
2018-06-19T16:34:28.698Z,1.50
2018-06-19T16:36:57.177Z,1.90
2018-06-19T16:39:25.662Z,3.60
2018-06-19T16:41:54.124Z,3.35
2018-06-19T16:44:22.526Z,2.00
2018-06-19T16:46:50.758Z,1.60
2018-06-19T16:49:19.203Z,1.70
2018-06-19T16:51:47.685Z,1.60
2018-06-19T16:54:16.283Z,1.52
2018-06-19T16:56:44.719Z,1.30
2018-06-19T16:59:13.137Z,1.50
2018-06-19T17:01:41.908Z,2.00
2018-06-19T17:04:10.070Z,1.70
2018-06-19T17:06:38.583Z,1.40
2018-06-19T17:09:07.840Z,2.00
2018-06-19T17:11:36.006Z,1.90
2018-06-19T17:14:04.793Z,1.70
2018-06-19T17:16:33.361Z,1.80
2018-06-19T17:19:01.771Z,1.70
2018-06-19T17:21:30.164Z,1.60
2018-06-19T17:23:58.845Z,1.70
2018-06-19T17:26:27.370Z,1.60
2018-06-19T17:28:55.870Z,1.70
2018-06-19T17:31:24.538Z,1.73
2018-06-19T17:33:53.027Z,1.62
2018-06-19T17:36:21.468Z,1.70
2018-06-19T17:38:49.960Z,1.80
2018-06-19T17:41:18.423Z,1.60
2018-06-19T17:43:46.875Z,2.12
2018-06-19T17:46:15.460Z,1.90
2018-06-19T17:48:43.911Z,1.98
2018-06-19T17:51:12.610Z,2.33
2018-06-19T17:53:41.065Z,2.10
2018-06-19T17:56:09.629Z,2.20
2018-06-19T17:58:38.214Z,2.40
2018-06-19T18:01:06.912Z,2.20
2018-06-19T18:03:35.301Z,2.20
2018-06-19T18:06:03.770Z,2.50
2018-06-19T18:08:32.335Z,1.92
2018-06-19T18:11:00.818Z,2.08
2018-06-19T18:13:29.234Z,2.40
2018-06-19T18:15:57.742Z,2.20
2018-06-19T18:18:26.150Z,2.40
2018-06-19T18:20:54.621Z,2.40
2018-06-19T18:23:23.058Z,2.30
2018-06-19T18:25:51.514Z,2.02
2018-06-19T18:28:20.090Z,2.20
2018-06-19T18:30:48.628Z,2.40
2018-06-19T18:33:17.158Z,2.37
2018-06-19T18:35:45.774Z,2.50
2018-06-19T18:38:14.360Z,2.15
2018-06-19T18:40:42.518Z,2.40
2018-06-19T18:43:10.963Z,2.37
2018-06-19T18:45:39.563Z,2.60
2018-06-19T18:48:08.053Z,2.70
2018-06-19T18:50:36.473Z,2.50
2018-06-19T18:53:05.238Z,2.90
2018-06-19T18:55:33.815Z,2.35
2018-06-19T18:58:01.963Z,2.60
2018-06-19T19:00:30.535Z,3.00
2018-06-19T19:02:59.237Z,2.80
2018-06-19T19:05:27.706Z,2.80
2018-06-19T19:07:56.136Z,2.90
2018-06-19T19:10:29.791Z,2.80
2018-06-19T19:12:58.260Z,3.30
2018-06-19T19:15:32.117Z,3.27
2018-06-19T19:18:06.038Z,2.80
2018-06-19T19:20:34.529Z,3.23
2018-06-19T19:23:03.226Z,3.37
2018-06-19T19:25:31.668Z,3.20
2018-06-19T19:28:05.118Z,2.83
2018-06-19T19:30:33.713Z,3.62
2018-06-19T19:33:02.199Z,3.30
2018-06-19T19:35:30.845Z,4.10
2018-06-19T19:38:04.591Z,3.60
2018-06-19T19:40:33.147Z,3.58
2018-06-19T19:43:01.755Z,3.60
2018-06-19T19:45:30.354Z,3.00
2018-06-19T19:48:04.285Z,3.27
2018-06-19T19:50:32.714Z,3.72
2018-06-19T19:53:01.188Z,3.40
2018-06-19T19:55:29.822Z,3.47
2018-06-19T19:58:03.502Z,3.90
2018-06-19T20:00:32.271Z,3.70
2018-06-19T20:03:00.669Z,3.58
2018-06-19T20:05:29.138Z,3.90
2018-06-19T20:07:57.672Z,4.10
2018-06-19T20:10:26.381Z,3.93
2018-06-19T20:12:54.842Z,4.00
2018-06-19T20:15:23.494Z,3.70
2018-06-19T20:17:51.755Z,3.90
2018-06-19T20:20:20.238Z,3.63
2018-06-19T20:22:48.698Z,4.08
2018-06-19T20:25:17.275Z,4.75
2018-06-19T20:27:45.858Z,4.90
2018-06-19T20:30:14.519Z,5.10
2018-06-19T20:32:42.935Z,5.10
2018-06-19T20:35:11.381Z,4.70
2018-06-19T20:37:39.967Z,4.10
2018-06-19T20:40:08.542Z,3.95
2018-06-19T20:42:37.140Z,3.90
2018-06-19T20:45:05.954Z,3.50
2018-06-19T20:47:34.426Z,4.05
2018-06-19T20:50:02.815Z,4.00
2018-06-19T20:52:31.262Z,4.00
2018-06-19T20:54:59.694Z,3.90
2018-06-19T20:57:28.248Z,4.00
2018-06-19T20:59:56.778Z,4.10
2018-06-19T21:02:25.269Z,4.10
2018-06-19T21:04:54.387Z,3.87
2018-06-19T21:07:22.891Z,3.90
2018-06-19T21:09:51.520Z,3.83
2018-06-19T21:12:19.967Z,4.15
2018-06-19T21:14:48.747Z,3.92
2018-06-19T21:17:17.247Z,4.60
2018-06-19T21:19:45.425Z,3.70
2018-06-19T21:22:13.834Z,4.10
2018-06-19T21:24:42.249Z,3.83
2018-06-19T21:27:10.756Z,4.50
2018-06-19T21:29:39.223Z,4.50
2018-06-19T21:32:07.644Z,4.30
2018-06-19T21:34:36.059Z,4.65
2018-06-19T21:37:04.785Z,4.20
2018-06-19T21:39:33.543Z,4.37
2018-06-19T21:42:02.078Z,3.90
2018-06-19T21:44:30.514Z,4.03
2018-06-19T21:49:26.774Z,3.67
2018-06-19T21:51:55.195Z,3.97
2018-06-19T21:54:23.635Z,4.50
2018-06-19T21:56:52.123Z,4.07
2018-06-19T21:59:20.570Z,3.87
2018-06-19T22:01:48.990Z,4.30
2018-06-19T22:04:17.380Z,3.60
2018-06-19T22:06:46.113Z,4.50
2018-06-19T22:09:14.578Z,4.10
2018-06-19T22:11:42.990Z,4.50
2018-06-19T22:14:11.342Z,4.03
2018-06-19T22:16:39.761Z,4.30
2018-06-19T22:19:08.139Z,4.27
2018-06-19T22:21:36.625Z,4.93
2018-06-19T22:24:05.234Z,4.20
2018-06-19T22:26:33.709Z,4.23
2018-06-19T22:29:02.067Z,4.10
2018-06-19T22:31:30.419Z,3.97
2018-06-19T22:33:58.785Z,3.73
2018-06-19T22:36:27.155Z,5.70
2018-06-19T22:38:55.238Z,4.53
2018-06-19T22:41:23.823Z,4.10
2018-06-19T22:43:52.360Z,3.90
2018-06-19T22:46:20.719Z,4.40
2018-06-19T22:48:49.160Z,4.80
2018-06-19T22:51:17.609Z,4.60
2018-06-19T22:53:46.112Z,3.53
2018-06-19T22:56:14.583Z,4.30
2018-06-19T22:58:43.172Z,4.40
2018-06-19T23:01:11.301Z,4.23
2018-06-19T23:03:39.662Z,4.33
2018-06-19T23:06:08.053Z,4.00
2018-06-19T23:08:36.447Z,4.67
2018-06-19T23:11:04.824Z,4.83
2018-06-19T23:13:33.197Z,3.90
2018-06-19T23:16:01.571Z,4.20
2018-06-19T23:18:29.923Z,4.40
2018-06-19T23:20:58.308Z,3.53
2018-06-19T23:23:26.678Z,3.60
2018-06-19T23:25:55.027Z,4.63
2018-06-19T23:28:23.369Z,3.77
2018-06-19T23:30:51.835Z,4.10
2018-06-19T23:33:20.210Z,4.00
2018-06-19T23:35:48.611Z,4.40
2018-06-19T23:38:16.966Z,4.27
2018-06-19T23:40:45.329Z,3.90
2018-06-19T23:43:13.798Z,3.73
2018-06-19T23:45:42.145Z,4.30
2018-06-19T23:48:10.570Z,4.23
2018-06-19T23:50:39.153Z,4.30
2018-06-19T23:53:07.593Z,4.27
2018-06-19T23:55:35.946Z,3.97
2018-06-19T23:58:04.506Z,4.43
